Time;durP1;ratioP1;P1;durP2;ratioP2;P2;SDS_P1;SDS_P2;PMS_P1;PMS_P2;Temp;Humidity;BMP_temperature;BMP_pressure;BME280_temperature;BME280_humidity;BME280_pressure;Samples;Min_cycle;Max_cycle;Signal;HPM_P1;HPM_P2
2023/05/29 00:00:06;;;;;;;5.38;3.20;;;13.80;95.50;;;13.64;82.49;97247.84;5024578;28;20049;-38
2023/05/29 00:02:35;;;;;;;8.48;3.80;;;13.80;95.70;;;13.62;82.69;97251.47;5027185;28;20056;-38
2023/05/29 00:05:05;;;;;;;5.65;3.60;;;13.70;95.80;;;13.51;84.37;97239.66;5025072;28;20061;-38
2023/05/29 00:07:32;;;;;;;7.55;4.20;;;13.70;96.20;;;13.52;86.42;97248.47;5028072;28;20033;-38
2023/05/29 00:09:58;;;;;;;8.05;3.30;;;13.70;96.60;;;13.46;86.55;97256.69;5023692;28;20497;-38
2023/05/29 00:12:25;;;;;;;6.97;3.42;;;13.60;96.70;;;13.42;85.55;97250.69;5023697;28;20042;-39
2023/05/29 00:14:50;;;;;;;5.97;3.25;;;13.60;96.50;;;13.38;86.46;97243.00;5026400;28;20408;-38
2023/05/29 00:17:16;;;;;;;7.20;3.25;;;13.50;96.70;;;13.34;87.25;97252.91;5017295;28;20349;-40
2023/05/29 00:19:43;;;;;;;5.95;3.63;;;13.50;96.90;;;13.26;88.43;97242.66;5008362;28;20022;-38
2023/05/29 00:22:09;;;;;;;8.07;4.03;;;13.40;97.20;;;13.10;88.36;97233.75;5014986;28;20076;-38
2023/05/29 00:24:34;;;;;;;7.07;3.50;;;13.40;97.20;;;13.11;88.52;97235.47;5020076;28;20562;-39
2023/05/29 00:27:01;;;;;;;5.50;3.50;;;13.40;97.30;;;13.12;87.49;97246.00;5018713;28;20447;-38
2023/05/29 00:29:27;;;;;;;9.20;3.47;;;13.30;97.10;;;13.11;89.02;97236.31;5022352;28;20025;-39
2023/05/29 00:31:53;;;;;;;7.60;3.58;;;13.30;97.50;;;13.07;88.20;97237.41;5019399;28;20560;-38
2023/05/29 00:34:20;;;;;;;5.18;3.35;;;13.20;97.30;;;13.01;87.88;97229.78;5020473;28;20033;-38
2023/05/29 00:36:46;;;;;;;5.68;3.20;;;13.20;97.30;;;13.03;88.67;97232.34;5018105;28;20059;-38
2023/05/29 00:39:12;;;;;;;9.90;3.88;;;13.20;97.50;;;13.03;89.27;97238.50;5012959;28;20091;-38
2023/05/29 00:41:38;;;;;;;6.60;3.50;;;13.20;97.70;;;12.99;90.05;97234.28;5016729;28;20116;-38
2023/05/29 00:44:03;;;;;;;7.78;3.60;;;13.10;97.80;;;12.95;89.29;97223.00;5015290;28;20032;-38
2023/05/29 00:46:31;;;;;;;9.00;4.00;;;13.10;97.70;;;12.89;90.04;97225.09;5013617;28;20025;-38
2023/05/29 00:48:59;;;;;;;5.50;3.67;;;13.10;97.90;;;12.88;90.23;97228.66;5019935;28;20475;-38
2023/05/29 00:51:27;;;;;;;6.15;3.95;;;13.10;98.00;;;12.80;90.82;97227.25;5014748;28;20370;-39
2023/05/29 00:53:54;;;;;;;7.70;3.80;;;13.00;98.10;;;12.59;91.23;97201.84;5018326;28;20444;-38
2023/05/29 00:56:21;;;;;;;4.90;3.28;;;12.90;98.20;;;12.64;92.20;97207.75;5007197;28;20038;-39
2023/05/29 00:58:50;;;;;;;7.10;3.78;;;12.90;98.90;;;12.70;93.40;97227.78;5013234;28;20529;-39
2023/05/29 01:01:19;;;;;;;5.35;3.58;;;12.90;98.80;;;12.65;93.70;97222.72;5010016;28;20037;-39
2023/05/29 01:03:45;;;;;;;5.18;3.17;;;12.80;98.90;;;12.62;93.20;97224.66;5006496;28;20037;-38
2023/05/29 01:06:11;;;;;;;6.35;3.60;;;12.80;98.80;;;12.58;94.01;97216.00;5004819;28;20307;-39
2023/05/29 01:08:37;;;;;;;5.82;3.40;;;12.80;99.00;;;12.48;93.89;97204.16;5004640;28;20040;-39
2023/05/29 01:11:55;;;;;;;7.22;3.97;;;12.70;99.00;;;12.51;94.37;97231.31;5012348;28;20128;-39
2023/05/29 01:14:45;;;;;;;5.40;3.65;;;12.70;99.10;;;12.48;94.74;97225.31;4985546;28;20046;-40
2023/05/29 01:17:52;;;;;;;9.88;4.13;;;12.70;99.30;;;12.44;95.15;97232.53;5009711;28;20513;-39
2023/05/29 01:20:41;;;;;;;6.28;3.97;;;12.60;99.40;;;12.38;96.58;97223.09;5003789;28;20033;-39
2023/05/29 01:23:32;;;;;;;6.50;3.80;;;12.60;99.80;;;12.33;96.22;97226.91;5010934;28;20028;-39
2023/05/29 01:26:33;;;;;;;6.70;3.70;;;12.50;99.80;;;12.32;96.76;97220.72;5015666;28;20091;-39
2023/05/29 01:29:04;;;;;;;8.15;3.30;;;12.50;99.90;;;12.25;98.08;97208.72;5015109;28;20505;-40
2023/05/29 01:31:31;;;;;;;8.38;3.85;;;12.50;99.90;;;12.15;98.37;97196.84;5015023;28;20501;-39
2023/05/29 01:33:59;;;;;;;7.97;3.88;;;12.50;99.90;;;12.17;98.60;97206.44;5013512;28;20049;-39
2023/05/29 01:36:26;;;;;;;7.53;3.92;;;12.40;99.90;;;12.20;98.34;97208.06;5013669;28;20037;-39
2023/05/29 01:38:55;;;;;;;7.05;3.50;;;12.40;99.90;;;12.15;99.25;97216.22;5011528;28;20033;-39
2023/05/29 01:41:23;;;;;;;8.57;3.42;;;12.30;99.90;;;12.09;100.00;97211.22;5012715;28;20037;-38
2023/05/29 01:43:50;;;;;;;8.95;3.88;;;12.30;99.90;;;12.05;100.00;97214.94;5015700;28;20785;-38
2023/05/29 01:46:16;;;;;;;4.97;3.50;;;12.30;99.90;;;12.02;100.00;97225.63;5012380;28;20064;-38
2023/05/29 01:48:44;;;;;;;6.70;3.70;;;12.20;99.90;;;11.95;100.00;97226.84;5016661;28;20411;-38
2023/05/29 01:51:11;;;;;;;6.00;3.55;;;12.20;99.90;;;11.93;100.00;97218.97;5018763;28;20390;-38
2023/05/29 01:53:38;;;;;;;6.10;3.60;;;12.10;99.90;;;11.93;100.00;97234.00;5018433;28;20029;-38
2023/05/29 01:56:06;;;;;;;6.13;3.60;;;12.10;99.90;;;11.91;100.00;97230.56;5016133;28;20034;-38
2023/05/29 01:58:34;;;;;;;5.50;3.58;;;12.10;99.90;;;11.87;100.00;97231.59;5015580;28;20245;-38
2023/05/29 02:01:01;;;;;;;6.65;3.75;;;12.10;99.90;;;11.83;100.00;97231.72;5018212;28;20025;-38
2023/05/29 02:03:30;;;;;;;6.30;3.63;;;12.00;99.90;;;11.79;100.00;97237.19;5018410;28;20503;-39
2023/05/29 02:05:58;;;;;;;5.32;3.35;;;12.00;99.90;;;11.76;100.00;97234.72;5004360;28;20042;-38
2023/05/29 02:08:24;;;;;;;6.03;3.78;;;12.00;99.90;;;11.70;100.00;97230.56;5019161;28;20038;-38
2023/05/29 02:10:50;;;;;;;7.20;4.03;;;11.90;99.90;;;11.68;100.00;97228.91;5018447;28;20030;-38
2023/05/29 02:13:16;;;;;;;6.13;3.85;;;11.90;99.90;;;11.67;100.00;97233.34;5019784;28;20414;-38
2023/05/29 02:15:42;;;;;;;6.28;3.67;;;11.90;99.90;;;11.65;100.00;97232.56;5018432;28;20560;-39
2023/05/29 02:18:12;;;;;;;6.93;4.25;;;11.90;99.90;;;11.63;100.00;97229.97;5013100;28;20056;-40
2023/05/29 02:20:38;;;;;;;9.27;3.97;;;11.90;99.90;;;11.64;100.00;97225.53;5015158;28;20100;-41
2023/05/29 02:23:04;;;;;;;6.00;3.90;;;11.90;99.90;;;11.61;100.00;97223.91;5014828;28;20127;-40
2023/05/29 02:25:30;;;;;;;5.82;3.85;;;11.80;99.90;;;11.57;100.00;97222.31;5010205;28;20037;-40
2023/05/29 02:27:56;;;;;;;6.60;3.70;;;11.80;99.90;;;11.54;100.00;97206.63;5017506;28;20090;-41
2023/05/29 02:30:22;;;;;;;6.30;3.35;;;11.80;99.90;;;11.49;100.00;97213.88;5008582;28;20461;-39
2023/05/29 02:32:48;;;;;;;5.38;3.30;;;11.70;99.90;;;11.48;100.00;97214.78;5008093;28;20319;-39
2023/05/29 02:35:15;;;;;;;8.35;3.95;;;11.70;99.90;;;11.40;100.00;97209.00;5005512;28;20056;-40
2023/05/29 02:37:41;;;;;;;5.70;3.78;;;11.70;99.90;;;11.46;100.00;97219.28;5005586;28;20029;-41
2023/05/29 02:40:10;;;;;;;7.45;3.75;;;11.70;99.90;;;11.42;100.00;97223.84;5009764;28;20030;-41
2023/05/29 02:42:36;;;;;;;11.20;3.92;;;11.60;99.90;;;11.40;100.00;97214.28;5013656;28;20033;-39
2023/05/29 02:45:02;;;;;;;7.18;3.47;;;11.60;99.90;;;11.40;100.00;97217.78;5019697;28;20079;-39
2023/05/29 02:47:27;;;;;;;6.43;3.40;;;11.60;99.90;;;11.40;100.00;97217.78;5020079;28;20037;-38
2023/05/29 02:49:53;;;;;;;10.30;3.83;;;11.60;99.90;;;11.38;100.00;97213.50;5018724;28;20028;-38
2023/05/29 02:52:19;;;;;;;6.63;3.78;;;11.60;99.90;;;11.37;100.00;97209.97;5021412;28;20029;-39
2023/05/29 02:54:44;;;;;;;6.75;3.67;;;11.60;99.90;;;11.36;100.00;97212.66;5011968;28;20418;-40
2023/05/29 02:57:10;;;;;;;7.53;4.15;;;11.60;99.90;;;11.36;100.00;97212.66;5020252;28;20095;-40
2023/05/29 02:59:37;;;;;;;5.90;3.60;;;11.60;99.90;;;11.32;100.00;97203.19;5010759;28;20048;-42
2023/05/29 03:02:02;;;;;;;6.03;3.65;;;11.50;99.90;;;11.32;100.00;97205.81;5020122;28;20112;-40
2023/05/29 03:04:28;;;;;;;6.80;3.90;;;11.50;99.90;;;11.04;100.00;97162.13;5020610;28;20125;-40
2023/05/29 03:06:54;;;;;;;5.32;3.60;;;11.50;99.90;;;11.24;100.00;97209.63;5025210;28;20036;-39
2023/05/29 03:09:20;;;;;;;7.30;3.30;;;11.50;99.90;;;11.24;100.00;97198.22;5021457;28;20254;-40
2023/05/29 03:11:47;;;;;;;5.90;3.42;;;11.50;99.90;;;11.23;100.00;97202.66;5018774;28;20037;-39
2023/05/29 03:14:13;;;;;;;6.20;3.60;;;11.50;99.90;;;11.22;100.00;97208.84;5018254;28;20033;-40
2023/05/29 03:16:40;;;;;;;8.15;3.85;;;11.50;99.90;;;11.22;100.00;97208.84;5016991;28;20041;-39
2023/05/29 03:19:07;;;;;;;8.18;3.65;;;11.40;99.90;;;11.20;100.00;97209.84;5019513;28;20026;-40
2023/05/29 03:21:36;;;;;;;9.68;3.45;;;11.40;99.90;;;11.17;100.00;97205.53;5019722;28;20052;-38
2023/05/29 03:24:05;;;;;;;7.68;3.88;;;11.40;99.90;;;11.13;100.00;97203.97;5026657;28;20063;-38
2023/05/29 03:26:31;;;;;;;6.93;3.60;;;11.40;99.90;;;11.10;100.00;97206.72;5024276;28;20504;-38
2023/05/29 03:28:56;;;;;;;9.57;3.85;;;11.40;99.90;;;11.07;100.00;97207.72;5014165;28;20137;-38
2023/05/29 03:31:22;;;;;;;6.63;3.95;;;11.30;99.90;;;11.05;100.00;97203.41;5019673;28;20028;-38
2023/05/29 03:33:49;;;;;;;6.45;3.85;;;11.30;99.90;;;11.03;100.00;97214.03;5014284;28;20556;-38
2023/05/29 03:36:16;;;;;;;7.32;3.47;;;11.30;99.90;;;11.04;100.00;97214.91;5023285;28;20087;-38
2023/05/29 03:38:43;;;;;;;7.43;3.40;;;11.30;99.90;;;11.07;100.00;97212.13;5017941;28;20256;-38
2023/05/29 03:41:09;;;;;;;6.20;3.72;;;11.30;99.90;;;11.05;100.00;97211.34;5016226;28;20130;-38
2023/05/29 03:43:36;;;;;;;5.55;3.28;;;11.30;99.90;;;11.06;100.00;97208.63;5019856;28;20034;-39
2023/05/29 03:46:01;;;;;;;6.80;3.72;;;11.30;99.90;;;11.06;100.00;97206.00;5013164;28;20030;-38
2023/05/29 03:48:27;;;;;;;5.85;3.50;;;11.30;99.90;;;11.07;100.00;97202.44;5017421;28;20222;-38
2023/05/29 03:50:53;;;;;;;6.43;4.05;;;11.30;99.90;;;11.12;100.00;97204.88;5018358;28;20745;-38
2023/05/29 03:53:18;;;;;;;5.72;3.83;;;11.30;99.90;;;11.12;100.00;97204.03;5017615;28;20037;-40
2023/05/29 03:55:44;;;;;;;5.85;3.35;;;11.30;99.90;;;11.15;100.00;97210.03;5021281;28;20033;-38
2023/05/29 03:58:12;;;;;;;5.85;3.55;;;11.40;99.90;;;11.16;100.00;97213.53;5025171;28;20056;-38
2023/05/29 04:00:38;;;;;;;7.30;3.55;;;11.40;99.90;;;11.17;100.00;97215.25;5014341;28;20038;-39
2023/05/29 04:03:04;;;;;;;5.10;3.42;;;11.40;99.90;;;11.18;100.00;97224.88;5019708;28;20777;-38
2023/05/29 04:05:30;;;;;;;5.80;3.55;;;11.40;99.90;;;11.18;100.00;97225.75;5010672;28;20030;-38
2023/05/29 04:07:56;;;;;;;7.50;3.55;;;11.40;99.90;;;11.17;100.00;97225.81;5018416;28;20044;-39
2023/05/29 04:10:23;;;;;;;5.20;3.28;;;11.40;99.90;;;11.23;100.00;97229.06;5018526;28;20030;-38
2023/05/29 04:12:48;;;;;;;6.20;3.65;;;11.50;99.90;;;11.30;100.00;97240.19;5018333;28;20030;-38
2023/05/29 04:15:14;;;;;;;8.02;3.83;;;11.50;99.90;;;11.29;100.00;97243.78;5019339;28;20034;-39
2023/05/29 04:17:40;;;;;;;6.00;3.65;;;11.60;99.90;;;11.31;100.00;97235.78;5016099;28;20044;-38
2023/05/29 04:20:08;;;;;;;7.72;3.75;;;11.60;99.90;;;11.39;100.00;97244.22;5015182;28;20034;-38
2023/05/29 04:22:37;;;;;;;7.95;3.97;;;11.60;99.90;;;11.35;100.00;97232.94;5012403;28;20026;-39
2023/05/29 04:25:04;;;;;;;7.05;3.70;;;11.60;99.90;;;11.46;100.00;97245.69;5018772;28;20033;-38
2023/05/29 04:27:37;;;;;;;9.80;4.28;;;11.70;99.90;;;11.51;100.00;97246.34;5013945;28;20037;-38
2023/05/29 04:30:07;;;;;;;7.28;3.95;;;11.70;99.90;;;11.58;100.00;97258.38;5018323;28;20206;-40
2023/05/29 04:32:34;;;;;;;6.30;3.80;;;11.80;99.90;;;11.65;100.00;97258.97;5015343;28;20036;-38
2023/05/29 04:35:02;;;;;;;9.13;3.80;;;11.90;99.90;;;11.72;100.00;97263.06;5018204;28;20037;-38
2023/05/29 04:37:37;;;;;;;7.05;3.58;;;12.00;99.90;;;11.78;100.00;97268.06;5008572;28;20125;-39
2023/05/29 04:40:08;;;;;;;6.63;4.00;;;12.00;99.90;;;11.83;100.00;97265.22;5017931;28;20083;-38
2023/05/29 04:42:35;;;;;;;6.22;3.83;;;12.10;99.90;;;11.93;100.00;97268.34;5015677;28;20035;-38
2023/05/29 04:45:01;;;;;;;7.38;4.00;;;12.10;99.90;;;11.99;100.00;97271.56;5017473;28;20057;-38
2023/05/29 04:47:27;;;;;;;7.22;4.15;;;12.20;99.90;;;12.06;100.00;97277.47;5018876;28;20037;-38
2023/05/29 04:49:54;;;;;;;7.18;3.50;;;12.20;99.90;;;12.14;100.00;97279.75;5019295;28;20099;-38
2023/05/29 04:52:21;;;;;;;8.02;3.97;;;12.30;99.90;;;12.12;100.00;97268.38;5019025;28;20033;-39
2023/05/29 04:54:47;;;;;;;7.05;3.55;;;12.40;99.90;;;12.31;100.00;97286.91;5018168;28;20036;-39
2023/05/29 04:57:12;;;;;;;7.80;3.75;;;12.50;99.90;;;12.39;100.00;97282.97;5014378;28;20034;-38
2023/05/29 04:59:38;;;;;;;5.63;3.60;;;12.60;99.90;;;12.47;100.00;97280.00;5015335;28;20075;-38
2023/05/29 05:02:05;;;;;;;7.32;3.80;;;12.70;99.90;;;12.52;100.00;97275.31;5017119;28;20037;-39
2023/05/29 05:04:32;;;;;;;5.45;3.58;;;12.70;99.90;;;12.65;100.00;97286.22;5016916;28;20042;-39
2023/05/29 05:06:57;;;;;;;5.50;3.55;;;12.80;99.90;;;12.70;100.00;97286.84;5016340;28;20555;-38
2023/05/29 05:09:23;;;;;;;7.95;3.85;;;12.90;99.90;;;12.77;100.00;97295.34;5013741;28;20477;-38
2023/05/29 05:11:49;;;;;;;6.75;3.72;;;13.00;99.90;;;12.84;100.00;97296.78;5018227;28;20120;-38
2023/05/29 05:14:15;;;;;;;7.85;3.88;;;13.10;99.90;;;12.90;100.00;97285.03;5018064;28;20033;-38
2023/05/29 05:16:40;;;;;;;7.70;3.38;;;13.20;99.90;;;13.02;100.00;97289.72;5015914;28;20041;-38
2023/05/29 05:19:06;;;;;;;6.70;3.85;;;13.20;99.90;;;13.11;100.00;97283.97;5021176;28;20493;-38
2023/05/29 05:21:32;;;;;;;6.70;3.65;;;13.30;99.90;;;13.23;100.00;97287.84;5013190;28;20049;-39
2023/05/29 05:23:59;;;;;;;5.38;3.90;;;13.40;99.90;;;13.38;100.00;97288.03;5005815;28;20113;-38
2023/05/29 05:26:26;;;;;;;6.13;2.90;;;13.50;99.90;;;13.58;100.00;97289.69;5014265;28;20069;-38
2023/05/29 05:28:52;;;;;;;8.32;3.90;;;13.70;99.90;;;13.80;100.00;97292.06;5012845;28;20416;-38
2023/05/29 05:31:18;;;;;;;5.32;3.38;;;13.90;99.90;;;13.90;100.00;97290.66;5015286;28;20398;-38
2023/05/29 05:33:43;;;;;;;6.22;3.15;;;14.10;99.90;;;14.01;100.00;97298.91;5012407;28;20053;-38
2023/05/29 05:36:10;;;;;;;7.90;3.83;;;14.10;99.90;;;14.10;99.70;97302.88;5017780;28;20040;-38
2023/05/29 05:38:35;;;;;;;5.75;3.47;;;14.20;99.90;;;14.21;97.02;97304.97;5020145;28;20419;-39
2023/05/29 05:41:01;;;;;;;5.93;3.28;;;14.40;99.90;;;14.27;95.55;97300.19;5018900;28;20072;-38
2023/05/29 05:43:27;;;;;;;6.00;3.25;;;14.40;99.90;;;14.40;94.88;97303.03;5015992;28;20116;-39
2023/05/29 05:45:52;;;;;;;8.52;3.72;;;14.50;99.90;;;14.51;93.67;97299.81;5015203;28;20033;-38
2023/05/29 05:48:18;;;;;;;7.63;3.40;;;14.70;99.90;;;14.48;88.60;97284.03;5019275;28;20119;-39
2023/05/29 05:50:44;;;;;;;6.22;3.15;;;14.80;99.90;;;14.76;87.61;97309.13;5009536;28;20045;-38
2023/05/29 05:53:09;;;;;;;6.00;3.28;;;14.90;99.90;;;14.87;86.69;97314.69;5017981;28;20037;-39
2023/05/29 05:55:35;;;;;;;7.43;3.45;;;15.00;99.90;;;14.98;85.09;97312.28;5015630;28;20035;-39
2023/05/29 05:58:01;;;;;;;6.20;3.60;;;15.10;99.90;;;15.10;80.42;97321.38;5018425;28;20107;-38
2023/05/29 06:00:27;;;;;;;7.40;3.25;;;15.20;99.90;;;15.18;80.08;97326.25;5019422;28;20025;-39
2023/05/29 06:02:53;;;;;;;7.68;3.70;;;15.30;99.90;;;15.26;78.86;97327.53;5017179;28;20047;-39
2023/05/29 06:05:19;;;;;;;7.45;3.25;;;15.40;99.90;;;15.40;80.23;97325.88;5015254;28;20059;-39
2023/05/29 06:07:45;;;;;;;4.53;3.00;;;15.50;99.90;;;15.55;82.26;97337.44;5009304;28;20042;-38
2023/05/29 06:10:10;;;;;;;4.80;3.10;;;15.60;99.90;;;15.68;81.66;97333.09;5020059;28;20148;-39
2023/05/29 06:12:36;;;;;;;7.22;3.40;;;15.70;99.90;;;15.76;80.16;97333.53;5014129;28;20048;-40
2023/05/29 06:15:04;;;;;;;5.60;2.97;;;15.90;99.90;;;15.98;79.82;97343.75;5022179;28;20041;-40
2023/05/29 06:17:29;;;;;;;7.03;3.72;;;16.00;99.90;;;16.12;78.52;97342.09;5017148;28;20090;-39
2023/05/29 06:19:55;;;;;;;6.65;3.80;;;16.20;99.90;;;16.25;78.08;97352.84;5021033;28;20252;-38
2023/05/29 06:22:21;;;;;;;6.32;3.70;;;16.30;99.90;;;16.38;77.21;97340.47;5011783;28;20048;-40
2023/05/29 06:24:46;;;;;;;8.82;3.60;;;16.40;99.90;;;16.44;75.32;97323.28;5012497;28;20068;-40
2023/05/29 06:27:12;;;;;;;10.18;3.78;;;16.60;99.90;;;16.68;73.44;97344.88;5017670;28;20039;-39
2023/05/29 06:29:38;;;;;;;6.70;4.10;;;16.70;99.90;;;16.80;73.95;97349.44;5020443;28;20103;-40
2023/05/29 06:32:04;;;;;;;7.78;3.65;;;16.80;99.90;;;16.88;72.73;97354.31;5010651;28;20401;-40
2023/05/29 06:34:30;;;;;;;7.13;3.28;;;16.90;99.80;;;17.00;74.74;97353.53;5020417;28;20040;-40
2023/05/29 06:36:55;;;;;;;8.95;3.45;;;17.00;99.90;;;17.15;74.52;97357.00;5014704;28;20034;-40
2023/05/29 06:39:21;;;;;;;8.15;3.80;;;17.10;99.90;;;17.18;73.11;97362.16;5015516;28;20033;-41
2023/05/29 06:41:47;;;;;;;8.30;3.67;;;17.10;99.70;;;17.18;72.35;97367.47;5015010;28;20026;-40
2023/05/29 06:44:12;;;;;;;7.63;4.10;;;17.20;99.50;;;17.25;72.70;97366.13;5019353;28;20481;-41
2023/05/29 06:46:38;;;;;;;5.85;3.42;;;17.20;99.90;;;17.23;72.95;97352.06;5015783;28;20067;-39
2023/05/29 06:49:04;;;;;;;10.15;3.60;;;17.20;99.80;;;17.32;72.93;97367.44;5017917;28;20074;-38
2023/05/29 06:51:32;;;;;;;11.05;3.83;;;17.30;99.80;;;17.25;74.84;97374.13;5014934;28;20034;-39
2023/05/29 06:53:57;;;;;;;7.13;3.97;;;17.30;99.90;;;17.27;70.71;97372.22;5008989;28;20490;-39
2023/05/29 06:56:23;;;;;;;11.43;4.10;;;17.30;99.20;;;17.32;70.20;97377.25;5017887;28;20032;-39
2023/05/29 06:58:49;;;;;;;6.13;3.75;;;17.30;98.90;;;17.42;71.00;97375.69;5016506;28;20037;-39
2023/05/29 07:01:16;;;;;;;6.10;3.88;;;17.40;99.00;;;17.48;74.25;97380.63;5017883;28;20096;-38
2023/05/29 07:03:42;;;;;;;6.25;3.92;;;17.40;99.90;;;17.55;71.82;97378.44;5017178;28;20032;-39
2023/05/29 07:06:08;;;;;;;7.80;3.92;;;17.50;99.30;;;17.53;71.21;97377.66;5023270;28;20366;-39
2023/05/29 07:08:34;;;;;;;7.90;4.13;;;17.60;99.40;;;17.55;70.59;97371.28;5014096;28;20033;-39
2023/05/29 07:11:01;;;;;;;6.53;3.53;;;17.70;99.00;;;17.83;68.88;97390.78;5018704;28;20076;-39
2023/05/29 07:13:27;;;;;;;8.27;3.60;;;17.80;98.90;;;18.00;68.42;97386.16;5021010;28;20021;-41
2023/05/29 07:15:53;;;;;;;7.43;4.30;;;17.90;98.70;;;18.20;67.16;97391.03;5016363;28;20028;-39
2023/05/29 07:18:18;;;;;;;5.72;3.35;;;18.10;98.40;;;18.36;65.36;97384.63;5014527;28;20080;-39
2023/05/29 07:20:44;;;;;;;6.82;3.63;;;18.20;98.00;;;18.39;64.36;97385.25;5014424;28;20033;-38
2023/05/29 07:23:10;;;;;;;7.05;3.95;;;18.30;97.40;;;18.41;63.15;97379.81;5018726;28;20025;-39
2023/05/29 07:25:35;;;;;;;6.03;3.33;;;18.40;97.10;;;18.57;63.38;97387.63;5011808;28;20026;-40
2023/05/29 07:28:01;;;;;;;10.65;4.20;;;18.50;97.10;;;18.58;59.38;97390.19;5018348;28;20033;-39
2023/05/29 07:30:27;;;;;;;8.45;3.35;;;18.60;96.20;;;18.76;60.90;97384.53;5014085;28;20033;-39
2023/05/29 07:32:52;;;;;;;10.40;3.17;;;18.60;96.40;;;18.87;59.96;97398.84;5016983;28;20065;-38
2023/05/29 07:35:18;;;;;;;6.95;3.85;;;18.80;96.10;;;18.91;54.97;97395.97;5014857;28;20029;-39
2023/05/29 07:37:44;;;;;;;3.75;2.85;;;18.80;94.40;;;19.04;55.54;97400.34;5017203;28;20439;-38
2023/05/29 07:40:10;;;;;;;6.38;3.20;;;18.90;94.40;;;19.13;55.85;97396.16;5021654;28;20504;-38
2023/05/29 07:42:36;;;;;;;9.05;3.80;;;19.10;94.70;;;19.05;53.82;97396.69;5017037;28;20033;-39
2023/05/29 07:45:01;;;;;;;6.55;3.53;;;19.10;93.80;;;19.08;54.55;97398.31;5018938;28;20053;-39
2023/05/29 07:47:27;;;;;;;8.10;4.05;;;19.10;93.90;;;19.05;57.34;97395.84;5017217;28;20049;-40
2023/05/29 07:49:53;;;;;;;8.85;3.80;;;19.10;94.40;;;19.15;58.37;97401.38;5013648;28;20028;-39
2023/05/29 07:52:19;;;;;;;4.97;3.30;;;19.10;94.90;;;19.27;58.27;97396.03;5023193;28;20055;-39
2023/05/29 07:54:44;;;;;;;4.65;3.10;;;19.20;95.10;;;19.39;57.07;97396.09;5016442;28;20480;-39
2023/05/29 07:57:10;;;;;;;8.20;3.70;;;19.30;94.90;;;19.37;54.91;97401.56;5022158;28;20036;-38
2023/05/29 07:59:37;;;;;;;5.78;3.55;;;19.40;93.80;;;19.40;55.61;97397.81;5015934;28;20452;-39
2023/05/29 08:02:03;;;;;;;7.50;3.88;;;19.40;94.00;;;19.45;55.54;97396.50;5011667;28;20030;-40
2023/05/29 08:04:30;;;;;;;6.75;3.80;;;19.40;93.90;;;19.53;56.93;97400.44;5015713;28;20063;-41
2023/05/29 08:06:56;;;;;;;9.82;3.80;;;19.50;94.90;;;19.60;56.53;97396.34;5015648;28;20036;-39
2023/05/29 08:09:21;;;;;;;6.25;3.35;;;19.60;94.80;;;19.75;54.88;97397.06;5024334;28;20087;-39
2023/05/29 08:11:47;;;;;;;5.18;3.25;;;19.70;93.70;;;19.78;51.35;97408.38;5018890;28;20510;-40
2023/05/29 08:14:15;;;;;;;5.05;3.60;;;19.80;92.20;;;19.81;50.14;97404.63;5021130;28;20034;-39
2023/05/29 08:16:41;;;;;;;5.35;3.17;;;19.80;91.50;;;19.89;50.43;97401.41;5016109;28;20159;-40
2023/05/29 08:19:07;;;;;;;5.65;3.13;;;19.80;91.60;;;20.01;52.60;97397.81;5021127;28;20095;-40
2023/05/29 08:21:33;;;;;;;5.35;3.40;;;19.90;92.30;;;20.10;52.37;97397.09;5020730;28;20453;-40
2023/05/29 08:23:59;;;;;;;6.40;3.22;;;20.00;92.70;;;20.23;51.84;97399.69;5017634;28;20050;-39
2023/05/29 08:26:26;;;;;;;8.10;4.13;;;20.20;92.20;;;20.30;52.52;97405.44;5016024;28;20033;-39
2023/05/29 08:28:51;;;;;;;8.68;4.00;;;20.20;92.70;;;20.39;50.23;97405.56;5020223;28;20549;-39
2023/05/29 08:31:17;;;;;;;7.40;3.80;;;20.40;91.80;;;20.51;50.22;97409.16;5018405;28;20041;-40
2023/05/29 08:33:43;;;;;;;4.97;3.38;;;20.40;91.30;;;20.55;50.62;97401.72;5015473;28;20064;-40
2023/05/29 08:36:09;;;;;;;5.95;3.50;;;20.50;91.90;;;20.64;52.48;97397.50;5021351;28;20562;-40
2023/05/29 08:38:35;;;;;;;9.65;3.83;;;20.60;91.80;;;20.76;51.06;97401.91;5017261;28;20434;-40
2023/05/29 08:41:02;;;;;;;4.63;3.30;;;20.70;91.90;;;20.85;56.38;97406.53;5018308;28;20536;-41
2023/05/29 08:43:31;;;;;;;7.10;3.95;;;20.80;93.10;;;20.81;49.98;97404.22;5022271;28;20056;-40
2023/05/29 08:46:02;;;;;;;7.03;4.10;;;20.80;91.20;;;20.73;48.93;97407.50;5009553;28;20035;-40
2023/05/29 08:48:30;;;;;;;7.40;4.25;;;20.70;90.70;;;20.62;48.93;97405.69;5014866;28;20037;-39
2023/05/29 08:50:58;;;;;;;8.48;4.30;;;20.60;90.30;;;20.71;51.17;97406.75;5009105;28;20374;-39
2023/05/29 08:53:25;;;;;;;9.52;3.78;;;20.60;91.50;;;20.66;52.14;97404.44;5008822;28;20118;-39
2023/05/29 08:55:57;;;;;;;8.05;3.75;;;20.70;92.00;;;20.77;53.90;97403.63;5015552;28;20441;-39
2023/05/29 08:58:23;;;;;;;6.25;3.40;;;20.80;92.80;;;20.84;51.93;97404.00;5016456;28;20029;-39
2023/05/29 09:00:50;;;;;;;6.00;4.10;;;20.80;92.00;;;20.92;51.10;97399.72;5018615;28;20033;-41
2023/05/29 09:03:17;;;;;;;5.55;3.50;;;20.90;91.70;;;21.07;50.63;97404.84;5014335;28;20056;-39
2023/05/29 09:05:45;;;;;;;6.07;3.75;;;21.00;91.30;;;21.18;51.21;97407.53;5014251;28;20029;-41
2023/05/29 09:08:11;;;;;;;9.27;4.10;;;21.10;91.50;;;21.24;52.06;97411.53;5014274;28;20041;-40
2023/05/29 09:10:45;;;;;;;7.97;4.28;;;21.20;92.20;;;21.29;48.42;97412.88;5016329;28;20402;-40
2023/05/29 09:13:13;;;;;;;10.70;4.18;;;21.20;90.40;;;21.14;47.91;97396.19;5014296;28;20376;-39
2023/05/29 09:15:42;;;;;;;11.50;3.78;;;21.30;89.90;;;21.25;51.48;97413.25;5013841;28;20021;-39
2023/05/29 09:18:08;;;;;;;4.72;3.63;;;21.30;90.90;;;21.24;51.42;97396.28;5021143;28;20037;-39
2023/05/29 09:20:34;;;;;;;5.35;3.58;;;21.30;91.30;;;;;;5013907;28;20040;-40
2023/05/29 09:23:04;;;;;;;6.97;4.10;;;21.40;91.80;;;21.49;50.84;97405.06;5013283;28;20056;-39
2023/05/29 09:25:32;;;;;;;7.15;3.85;;;21.50;91.30;;;21.61;50.62;97408.59;5009196;28;20036;-40
2023/05/29 09:28:05;;;;;;;9.10;4.13;;;21.60;91.20;;;21.69;51.53;97411.50;5001130;28;20527;-41
2023/05/29 09:30:36;;;;;;;6.68;3.47;;;21.70;91.40;;;21.76;48.14;97412.69;5009471;28;20234;-41
2023/05/29 09:33:03;;;;;;;7.32;4.07;;;21.70;90.20;;;21.77;48.61;97392.06;5016156;28;20041;-40
2023/05/29 09:35:39;;;;;;;6.82;4.10;;;21.80;90.40;;;21.86;52.20;97408.28;4998860;28;20037;-40
2023/05/29 09:38:07;;;;;;;6.80;3.80;;;21.80;91.40;;;21.91;50.02;97407.88;5010678;28;20393;-41
2023/05/29 09:40:35;;;;;;;5.72;3.70;;;21.90;90.80;;;21.89;49.65;97397.28;5011234;28;20048;-41
2023/05/29 09:43:17;;;;;;;5.30;3.83;;;21.90;90.40;;;22.05;50.58;97417.47;5016506;28;20037;-41
2023/05/29 09:45:47;;;;;;;6.60;3.70;;;22.00;91.00;;;22.15;47.02;97414.91;5014069;28;20072;-41
2023/05/29 09:48:23;;;;;;;7.95;3.85;;;22.10;89.10;;;22.14;45.56;97414.03;5021401;28;20103;-41
2023/05/29 09:50:50;;;;;;;6.22;3.75;;;22.10;86.10;;;22.20;48.22;97416.22;5015361;28;20033;-40
2023/05/29 09:53:21;;;;;;;4.70;3.40;;;22.20;89.60;;;22.21;49.04;97407.16;5018281;28;20572;-42
2023/05/29 09:55:50;;;;;;;8.57;3.92;;;22.20;89.90;;;22.43;49.21;97422.34;5010910;28;20117;-40
2023/05/29 09:58:19;;;;;;;10.27;4.47;;;22.40;90.00;;;22.39;46.60;97401.25;5021235;28;20037;-40
2023/05/29 10:00:45;;;;;;;6.63;4.38;;;22.50;86.50;;;22.40;45.61;97401.13;5021826;28;20410;-39
2023/05/29 10:03:14;;;;;;;8.48;3.90;;;22.50;85.00;;;22.45;46.90;97406.97;5026488;28;20698;-40
2023/05/29 10:05:40;;;;;;;6.70;3.80;;;22.50;88.20;;;22.52;46.11;97403.72;5019571;28;20032;-39
2023/05/29 10:08:13;;;;;;;9.80;4.15;;;22.50;85.40;;;22.61;44.75;97402.94;5028419;28;20683;-40
2023/05/29 10:10:46;;;;;;;7.53;4.15;;;22.60;85.60;;;22.54;43.24;97383.81;5023030;28;20330;-39
2023/05/29 10:13:14;;;;;;;8.27;4.15;;;22.60;82.10;;;22.48;43.46;97384.34;5016867;28;20610;-40
2023/05/29 10:15:45;;;;;;;10.30;4.10;;;22.60;81.70;;;22.52;47.53;97379.53;5013999;28;20049;-39
2023/05/29 10:18:24;;;;;;;6.15;3.70;;;22.50;85.80;;;22.67;47.01;97383.59;5016472;28;20637;-39